METAR Data
IDs: Format: Raw Decoded Include TAF

Data at: 2320 UTC 18 Oct 2019

METAR for:KTVY (Tooele Valley Arpt, UT, US)
Text:KTVY 182315Z AUTO 00000KT 10SM CLR 12/M01 A3000 RMK AO2
Temperature: 12.0°C ( 54°F)
Dewpoint: -1.0°C ( 30°F) [RH = 40%]
Pressure (altimeter):30.00 inches Hg (1016.0 mb)
Winds:calm
Visibility:10 or more sm (16+ km)
Ceiling:at least 12,000 feet AGL
Clouds:sky clear below 12,000 feet AGL
QC Flag:automated observation with no human augmentation
Text:KTVY 182255Z AUTO 00000KT 10SM CLR 13/M01 A3000 RMK AO2
Temperature: 13.0°C ( 55°F)
Dewpoint: -1.0°C ( 30°F) [RH = 38%]
Pressure (altimeter):30.00 inches Hg (1016.0 mb)
Winds:calm
Visibility:10 or more sm (16+ km)
Ceiling:at least 12,000 feet AGL
Clouds:sky clear below 12,000 feet AGL
QC Flag:automated observation with no human augmentation
Text:KTVY 182235Z AUTO 02008KT 10SM CLR 12/M01 A3000 RMK AO2
Temperature: 12.0°C ( 54°F)
Dewpoint: -1.0°C ( 30°F) [RH = 40%]
Pressure (altimeter):30.00 inches Hg (1016.0 mb)
Winds:from the NNE (20 degrees) at 9 MPH (8 knots; 4.1 m/s)
Visibility:10 or more sm (16+ km)
Ceiling:at least 12,000 feet AGL
Clouds:sky clear below 12,000 feet AGL
QC Flag:automated observation with no human augmentation
Text:KTVY 182215Z AUTO 34006KT 10SM SCT065 13/M01 A3001 RMK AO2
Temperature: 13.0°C ( 55°F)
Dewpoint: -1.0°C ( 30°F) [RH = 38%]
Pressure (altimeter):30.01 inches Hg (1016.3 mb)
Winds:from the NNW (340 degrees) at 7 MPH (6 knots; 3.1 m/s)
Visibility:10 or more sm (16+ km)
Ceiling:at least 12,000 feet AGL
Clouds: scattered clouds at 6500 feet AGL
QC Flag:automated observation with no human augmentation
Text:KTVY 182155Z AUTO 36007KT 10SM BKN065 13/M01 A3001 RMK AO2
Temperature: 13.0°C ( 55°F)
Dewpoint: -1.0°C ( 30°F) [RH = 38%]
Pressure (altimeter):30.01 inches Hg (1016.3 mb)
Winds:from the N (360 degrees) at 8 MPH (7 knots; 3.6 m/s)
Visibility:10 or more sm (16+ km)
Ceiling:6500 feet AGL
Clouds: broken clouds at 6500 feet AGL
QC Flag:automated observation with no human augmentation
Text:KTVY 182135Z AUTO 36008KT 10SM BKN065 11/M01 A3000 RMK AO2
Temperature: 11.0°C ( 52°F)
Dewpoint: -1.0°C ( 30°F) [RH = 43%]
Pressure (altimeter):30.00 inches Hg (1016.0 mb)
Winds:from the N (360 degrees) at 9 MPH (8 knots; 4.1 m/s)
Visibility:10 or more sm (16+ km)
Ceiling:6500 feet AGL
Clouds: broken clouds at 6500 feet AGL
QC Flag:automated observation with no human augmentation
Text:KTVY 182115Z AUTO 03003KT 10SM SCT070 12/M02 A2999 RMK AO2
Temperature: 12.0°C ( 54°F)
Dewpoint: -2.0°C ( 28°F) [RH = 38%]
Pressure (altimeter):29.99 inches Hg (1015.7 mb)
Winds:from the NNE (30 degrees) at 3 MPH (3 knots; 1.5 m/s)
Visibility:10 or more sm (16+ km)
Ceiling:at least 12,000 feet AGL
Clouds: scattered clouds at 7000 feet AGL
QC Flag:automated observation with no human augmentation
Text:KTVY 182055Z AUTO 09003KT 10SM CLR 12/M01 A2999 RMK AO2
Temperature: 12.0°C ( 54°F)
Dewpoint: -1.0°C ( 30°F) [RH = 40%]
Pressure (altimeter):29.99 inches Hg (1015.7 mb)
Winds:from the E (90 degrees) at 3 MPH (3 knots; 1.5 m/s)
Visibility:10 or more sm (16+ km)
Ceiling:at least 12,000 feet AGL
Clouds:sky clear below 12,000 feet AGL
QC Flag:automated observation with no human augmentation
Text:KTVY 182035Z AUTO 35004KT 10SM CLR 12/M02 A3000 RMK AO2
Temperature: 12.0°C ( 54°F)
Dewpoint: -2.0°C ( 28°F) [RH = 38%]
Pressure (altimeter):30.00 inches Hg (1016.0 mb)
Winds:from the N (350 degrees) at 5 MPH (4 knots; 2.1 m/s)
Visibility:10 or more sm (16+ km)
Ceiling:at least 12,000 feet AGL
Clouds:sky clear below 12,000 feet AGL
QC Flag:automated observation with no human augmentation
Text:KTVY 182015Z AUTO 20006KT 10SM CLR 12/M01 A3000 RMK AO2
Temperature: 12.0°C ( 54°F)
Dewpoint: -1.0°C ( 30°F) [RH = 40%]
Pressure (altimeter):30.00 inches Hg (1016.0 mb)
Winds:from the SSW (200 degrees) at 7 MPH (6 knots; 3.1 m/s)
Visibility:10 or more sm (16+ km)
Ceiling:at least 12,000 feet AGL
Clouds:sky clear below 12,000 feet AGL
QC Flag:automated observation with no human augmentation
Text:KTVY 181955Z AUTO 34003KT 10SM CLR 12/M02 A3001 RMK AO2
Temperature: 12.0°C ( 54°F)
Dewpoint: -2.0°C ( 28°F) [RH = 38%]
Pressure (altimeter):30.01 inches Hg (1016.3 mb)
Winds:from the NNW (340 degrees) at 3 MPH (3 knots; 1.5 m/s)
Visibility:10 or more sm (16+ km)
Ceiling:at least 12,000 feet AGL
Clouds:sky clear below 12,000 feet AGL
QC Flag:automated observation with no human augmentation
Text:KTVY 181935Z AUTO 22003KT 10SM CLR 12/M01 A3002 RMK AO2
Temperature: 12.0°C ( 54°F)
Dewpoint: -1.0°C ( 30°F) [RH = 40%]
Pressure (altimeter):30.02 inches Hg (1016.7 mb)
Winds:from the SW (220 degrees) at 3 MPH (3 knots; 1.5 m/s)
Visibility:10 or more sm (16+ km)
Ceiling:at least 12,000 feet AGL
Clouds:sky clear below 12,000 feet AGL
QC Flag:automated observation with no human augmentation
Text:KTVY 181915Z AUTO 00000KT 10SM CLR 11/M01 A3003 RMK AO2
Temperature: 11.0°C ( 52°F)
Dewpoint: -1.0°C ( 30°F) [RH = 43%]
Pressure (altimeter):30.03 inches Hg (1017.0 mb)
Winds:calm
Visibility:10 or more sm (16+ km)
Ceiling:at least 12,000 feet AGL
Clouds:sky clear below 12,000 feet AGL
QC Flag:automated observation with no human augmentation
Text:KTVY 181855Z AUTO 08005KT 10SM CLR 11/00 A3004 RMK AO2
Temperature: 11.0°C ( 52°F)
Dewpoint: 0.0°C ( 32°F) [RH = 47%]
Pressure (altimeter):30.04 inches Hg (1017.4 mb)
Winds:from the E (80 degrees) at 6 MPH (5 knots; 2.6 m/s)
Visibility:10 or more sm (16+ km)
Ceiling:at least 12,000 feet AGL
Clouds:sky clear below 12,000 feet AGL
QC Flag:automated observation with no human augmentation
Text:KTVY 181835Z AUTO 11003KT 10SM CLR 11/M01 A3005 RMK AO2
Temperature: 11.0°C ( 52°F)
Dewpoint: -1.0°C ( 30°F) [RH = 43%]
Pressure (altimeter):30.05 inches Hg (1017.7 mb)
Winds:from the ESE (110 degrees) at 3 MPH (3 knots; 1.5 m/s)
Visibility:10 or more sm (16+ km)
Ceiling:at least 12,000 feet AGL
Clouds:sky clear below 12,000 feet AGL
QC Flag:automated observation with no human augmentation